sensor_id;sensor_type;location;lat;lon;timestamp;P1;P2;P0
72485;PMS5003;60509;47.308;-122.428;2022-12-07T00:02:25;4582;4582;
72485;PMS5003;60509;47.308;-122.428;2022-12-07T00:04:51;4588;4588;
72485;PMS5003;60509;47.308;-122.428;2022-12-07T00:07:16;4602;4602;
72485;PMS5003;60509;47.308;-122.428;2022-12-07T00:09:42;4588;4588;
72485;PMS5003;60509;47.308;-122.428;2022-12-07T00:12:07;4595;4595;
72485;PMS5003;60509;47.308;-122.428;2022-12-07T00:14:33;4588;4588;
72485;PMS5003;60509;47.308;-122.428;2022-12-07T00:16:58;4582;4582;
72485;PMS5003;60509;47.308;-122.428;2022-12-07T00:19:25;4595;4595;
72485;PMS5003;60509;47.308;-122.428;2022-12-07T00:21:49;4582;4582;
72485;PMS5003;60509;47.308;-122.428;2022-12-07T00:24:15;4595;4595;
72485;PMS5003;60509;47.308;-122.428;2022-12-07T00:26:41;4595;4595;
72485;PMS5003;60509;47.308;-122.428;2022-12-07T00:29:07;4588;4588;
72485;PMS5003;60509;47.308;-122.428;2022-12-07T00:31:32;4582;4582;
72485;PMS5003;60509;47.308;-122.428;2022-12-07T00:33:57;4595;4595;
72485;PMS5003;60509;47.308;-122.428;2022-12-07T00:36:23;4555;4555;
72485;PMS5003;60509;47.308;-122.428;2022-12-07T00:38:48;4515;4515;
72485;PMS5003;60509;47.308;-122.428;2022-12-07T00:41:14;4562;4562;
72485;PMS5003;60509;47.308;-122.428;2022-12-07T00:43:39;4548;4548;
72485;PMS5003;60509;47.308;-122.428;2022-12-07T00:46:05;4562;4562;
72485;PMS5003;60509;47.308;-122.428;2022-12-07T00:48:30;4568;4568;
72485;PMS5003;60509;47.308;-122.428;2022-12-07T00:50:56;4575;4575;
72485;PMS5003;60509;47.308;-122.428;2022-12-07T00:53:21;4575;4575;
72485;PMS5003;60509;47.308;-122.428;2022-12-07T00:55:47;4582;4582;
72485;PMS5003;60509;47.308;-122.428;2022-12-07T00:58:12;4588;4588;
72485;PMS5003;60509;47.308;-122.428;2022-12-07T01:00:38;4562;4562;
72485;PMS5003;60509;47.308;-122.428;2022-12-07T01:03:03;4575;4575;
72485;PMS5003;60509;47.308;-122.428;2022-12-07T01:05:29;4575;4575;
72485;PMS5003;60509;47.308;-122.428;2022-12-07T01:07:54;4555;4555;
72485;PMS5003;60509;47.308;-122.428;2022-12-07T01:10:20;4562;4562;
72485;PMS5003;60509;47.308;-122.428;2022-12-07T01:12:45;4555;4555;
72485;PMS5003;60509;47.308;-122.428;2022-12-07T01:15:11;4555;4555;
72485;PMS5003;60509;47.308;-122.428;2022-12-07T01:17:37;4562;4562;
72485;PMS5003;60509;47.308;-122.428;2022-12-07T01:20:02;4555;4555;
72485;PMS5003;60509;47.308;-122.428;2022-12-07T01:22:28;4568;4568;
72485;PMS5003;60509;47.308;-122.428;2022-12-07T01:24:53;4562;4562;
72485;PMS5003;60509;47.308;-122.428;2022-12-07T01:27:19;4548;4548;
72485;PMS5003;60509;47.308;-122.428;2022-12-07T01:29:44;4548;4548;
72485;PMS5003;60509;47.308;-122.428;2022-12-07T01:32:10;4555;4555;
72485;PMS5003;60509;47.308;-122.428;2022-12-07T01:34:36;4562;4562;
72485;PMS5003;60509;47.308;-122.428;2022-12-07T01:37:01;4562;4562;
72485;PMS5003;60509;47.308;-122.428;2022-12-07T01:39:26;4562;4562;
72485;PMS5003;60509;47.308;-122.428;2022-12-07T01:41:52;4562;4562;
72485;PMS5003;60509;47.308;-122.428;2022-12-07T01:44:19;4575;4575;
72485;PMS5003;60509;47.308;-122.428;2022-12-07T01:46:44;4548;4548;
72485;PMS5003;60509;47.308;-122.428;2022-12-07T01:49:09;4548;4548;
72485;PMS5003;60509;47.308;-122.428;2022-12-07T01:51:34;4528;4528;
72485;PMS5003;60509;47.308;-122.428;2022-12-07T01:54:00;4548;4548;
72485;PMS5003;60509;47.308;-122.428;2022-12-07T01:56:26;4542;4542;
72485;PMS5003;60509;47.308;-122.428;2022-12-07T01:58:51;4562;4562;
72485;PMS5003;60509;47.308;-122.428;2022-12-07T02:01:16;4555;4555;
72485;PMS5003;60509;47.308;-122.428;2022-12-07T02:03:43;4528;4528;
72485;PMS5003;60509;47.308;-122.428;2022-12-07T02:06:08;4555;4555;
72485;PMS5003;60509;47.308;-122.428;2022-12-07T02:08:33;4555;4555;
72485;PMS5003;60509;47.308;-122.428;2022-12-07T02:10:59;4562;4562;
72485;PMS5003;60509;47.308;-122.428;2022-12-07T02:13:25;4555;4555;
72485;PMS5003;60509;47.308;-122.428;2022-12-07T02:16:09;4548;4548;
72485;PMS5003;60509;47.308;-122.428;2022-12-07T02:18:16;4548;4548;
72485;PMS5003;60509;47.308;-122.428;2022-12-07T02:20:41;4548;4548;
72485;PMS5003;60509;47.308;-122.428;2022-12-07T02:23:15;4548;4548;
72485;PMS5003;60509;47.308;-122.428;2022-12-07T02:25:36;4568;4568;
72485;PMS5003;60509;47.308;-122.428;2022-12-07T02:28:00;4575;4575;
72485;PMS5003;60509;47.308;-122.428;2022-12-07T02:30:23;4562;4562;
72485;PMS5003;60509;47.308;-122.428;2022-12-07T02:32:51;4562;4562;
72485;PMS5003;60509;47.308;-122.428;2022-12-07T02:35:17;4562;4562;
72485;PMS5003;60509;47.308;-122.428;2022-12-07T02:37:41;4522;4522;
72485;PMS5003;60509;47.308;-122.428;2022-12-07T02:40:07;4568;4568;
72485;PMS5003;60509;47.308;-122.428;2022-12-07T02:42:32;4575;4575;
72485;PMS5003;60509;47.308;-122.428;2022-12-07T02:44:56;4568;4568;
72485;PMS5003;60509;47.308;-122.428;2022-12-07T02:47:22;4568;4568;
72485;PMS5003;60509;47.308;-122.428;2022-12-07T02:49:48;4548;4548;
72485;PMS5003;60509;47.308;-122.428;2022-12-07T02:52:13;4562;4562;
72485;PMS5003;60509;47.308;-122.428;2022-12-07T02:54:38;4522;4522;
72485;PMS5003;60509;47.308;-122.428;2022-12-07T02:57:06;4548;4548;
72485;PMS5003;60509;47.308;-122.428;2022-12-07T02:59:32;4568;4568;
72485;PMS5003;60509;47.308;-122.428;2022-12-07T03:01:55;4568;4568;
72485;PMS5003;60509;47.308;-122.428;2022-12-07T03:04:23;4555;4555;
72485;PMS5003;60509;47.308;-122.428;2022-12-07T03:06:47;4555;4555;
72485;PMS5003;60509;47.308;-122.428;2022-12-07T03:09:12;4542;4542;
72485;PMS5003;60509;47.308;-122.428;2022-12-07T03:11:38;4509;4509;
72485;PMS5003;60509;47.308;-122.428;2022-12-07T03:14:02;4568;4568;
72485;PMS5003;60509;47.308;-122.428;2022-12-07T03:16:27;4548;4548;
72485;PMS5003;60509;47.308;-122.428;2022-12-07T03:18:53;4568;4568;
72485;PMS5003;60509;47.308;-122.428;2022-12-07T03:21:18;4568;4568;
72485;PMS5003;60509;47.308;-122.428;2022-12-07T03:23:44;4555;4555;
72485;PMS5003;60509;47.308;-122.428;2022-12-07T03:26:09;4562;4562;
72485;PMS5003;60509;47.308;-122.428;2022-12-07T03:28:36;4562;4562;
72485;PMS5003;60509;47.308;-122.428;2022-12-07T03:31:01;4555;4555;
72485;PMS5003;60509;47.308;-122.428;2022-12-07T03:33:26;4575;4575;
72485;PMS5003;60509;47.308;-122.428;2022-12-07T03:35:52;4548;4548;
72485;PMS5003;60509;47.308;-122.428;2022-12-07T03:38:17;4562;4562;
72485;PMS5003;60509;47.308;-122.428;2022-12-07T03:40:43;4542;4542;
72485;PMS5003;60509;47.308;-122.428;2022-12-07T03:43:08;4555;4555;
72485;PMS5003;60509;47.308;-122.428;2022-12-07T03:45:37;4562;4562;
72485;PMS5003;60509;47.308;-122.428;2022-12-07T03:48:01;4542;4542;
72485;PMS5003;60509;47.308;-122.428;2022-12-07T03:50:27;4568;4568;
72485;PMS5003;60509;47.308;-122.428;2022-12-07T03:52:52;4575;4575;
72485;PMS5003;60509;47.308;-122.428;2022-12-07T03:55:17;4582;4582;
72485;PMS5003;60509;47.308;-122.428;2022-12-07T03:57:41;4568;4568;
72485;PMS5003;60509;47.308;-122.428;2022-12-07T04:00:09;4542;4542;
72485;PMS5003;60509;47.308;-122.428;2022-12-07T04:02:33;4568;4568;
72485;PMS5003;60509;47.308;-122.428;2022-12-07T04:04:58;4568;4568;
72485;PMS5003;60509;47.308;-122.428;2022-12-07T04:07:24;4575;4575;
72485;PMS5003;60509;47.308;-122.428;2022-12-07T04:09:49;4568;4568;
72485;PMS5003;60509;47.308;-122.428;2022-12-07T04:12:15;4575;4575;
72485;PMS5003;60509;47.308;-122.428;2022-12-07T04:14:40;4568;4568;
72485;PMS5003;60509;47.308;-122.428;2022-12-07T04:17:08;4575;4575;
72485;PMS5003;60509;47.308;-122.428;2022-12-07T04:19:33;4575;4575;
72485;PMS5003;60509;47.308;-122.428;2022-12-07T04:21:58;4575;4575;
72485;PMS5003;60509;47.308;-122.428;2022-12-07T04:24:24;4582;4582;
72485;PMS5003;60509;47.308;-122.428;2022-12-07T04:26:49;4568;4568;
72485;PMS5003;60509;47.308;-122.428;2022-12-07T04:29:15;4562;4562;
72485;PMS5003;60509;47.308;-122.428;2022-12-07T04:31:41;4568;4568;
72485;PMS5003;60509;47.308;-122.428;2022-12-07T04:34:06;4562;4562;
72485;PMS5003;60509;47.308;-122.428;2022-12-07T04:36:31;4568;4568;
72485;PMS5003;60509;47.308;-122.428;2022-12-07T04:38:57;4575;4575;
72485;PMS5003;60509;47.308;-122.428;2022-12-07T04:41:23;4562;4562;
72485;PMS5003;60509;47.308;-122.428;2022-12-07T04:43:48;4568;4568;
72485;PMS5003;60509;47.308;-122.428;2022-12-07T04:46:14;4568;4568;
72485;PMS5003;60509;47.308;-122.428;2022-12-07T04:48:39;4555;4555;
72485;PMS5003;60509;47.308;-122.428;2022-12-07T04:51:04;4562;4562;
72485;PMS5003;60509;47.308;-122.428;2022-12-07T04:53:30;4562;4562;
72485;PMS5003;60509;47.308;-122.428;2022-12-07T04:55:56;4562;4562;
72485;PMS5003;60509;47.308;-122.428;2022-12-07T04:58:21;4542;4542;
72485;PMS5003;60509;47.308;-122.428;2022-12-07T05:00:46;4542;4542;
72485;PMS5003;60509;47.308;-122.428;2022-12-07T05:03:12;4562;4562;
72485;PMS5003;60509;47.308;-122.428;2022-12-07T05:05:40;4515;4515;
72485;PMS5003;60509;47.308;-122.428;2022-12-07T05:08:03;4555;4555;
72485;PMS5003;60509;47.308;-122.428;2022-12-07T05:10:28;4562;4562;
72485;PMS5003;60509;47.308;-122.428;2022-12-07T05:12:54;4562;4562;
72485;PMS5003;60509;47.308;-122.428;2022-12-07T05:15:19;4582;4582;
72485;PMS5003;60509;47.308;-122.428;2022-12-07T05:17:45;4555;4555;
72485;PMS5003;60509;47.308;-122.428;2022-12-07T05:20:11;4588;4588;
72485;PMS5003;60509;47.308;-122.428;2022-12-07T05:22:36;4535;4535;
72485;PMS5003;60509;47.308;-122.428;2022-12-07T05:25:02;4568;4568;
72485;PMS5003;60509;47.308;-122.428;2022-12-07T05:27:27;4582;4582;
72485;PMS5003;60509;47.308;-122.428;2022-12-07T05:29:53;4575;4575;
72485;PMS5003;60509;47.308;-122.428;2022-12-07T05:32:18;4575;4575;
72485;PMS5003;60509;47.308;-122.428;2022-12-07T05:34:44;4588;4588;
72485;PMS5003;60509;47.308;-122.428;2022-12-07T05:37:09;4582;4582;
72485;PMS5003;60509;47.308;-122.428;2022-12-07T05:39:35;4595;4595;
72485;PMS5003;60509;47.308;-122.428;2022-12-07T05:42:01;4582;4582;
72485;PMS5003;60509;47.308;-122.428;2022-12-07T05:44:26;4582;4582;
72485;PMS5003;60509;47.308;-122.428;2022-12-07T05:46:52;4575;4575;
72485;PMS5003;60509;47.308;-122.428;2022-12-07T05:49:17;4562;4562;
72485;PMS5003;60509;47.308;-122.428;2022-12-07T05:51:43;4568;4568;
72485;PMS5003;60509;47.308;-122.428;2022-12-07T05:54:08;4568;4568;
72485;PMS5003;60509;47.308;-122.428;2022-12-07T05:56:34;4568;4568;
72485;PMS5003;60509;47.308;-122.428;2022-12-07T05:59:00;4548;4548;
72485;PMS5003;60509;47.308;-122.428;2022-12-07T06:01:25;4548;4548;
72485;PMS5003;60509;47.308;-122.428;2022-12-07T06:03:51;4562;4562;
72485;PMS5003;60509;47.308;-122.428;2022-12-07T06:06:16;4542;4542;
72485;PMS5003;60509;47.308;-122.428;2022-12-07T06:08:42;4535;4535;
72485;PMS5003;60509;47.308;-122.428;2022-12-07T06:11:08;4522;4522;
72485;PMS5003;60509;47.308;-122.428;2022-12-07T06:13:33;4548;4548;
72485;PMS5003;60509;47.308;-122.428;2022-12-07T06:15:59;4528;4528;
72485;PMS5003;60509;47.308;-122.428;2022-12-07T06:18:24;4528;4528;
72485;PMS5003;60509;47.308;-122.428;2022-12-07T06:20:50;4515;4515;
72485;PMS5003;60509;47.308;-122.428;2022-12-07T06:23:16;4548;4548;
72485;PMS5003;60509;47.308;-122.428;2022-12-07T06:25:45;4548;4548;
72485;PMS5003;60509;47.308;-122.428;2022-12-07T06:28:07;4522;4522;
72485;PMS5003;60509;47.308;-122.428;2022-12-07T06:30:32;4548;4548;
72485;PMS5003;60509;47.308;-122.428;2022-12-07T06:32:58;4562;4562;
72485;PMS5003;60509;47.308;-122.428;2022-12-07T06:35:23;4548;4548;
72485;PMS5003;60509;47.308;-122.428;2022-12-07T06:37:49;4542;4542;
72485;PMS5003;60509;47.308;-122.428;2022-12-07T06:40:15;4548;4548;
72485;PMS5003;60509;47.308;-122.428;2022-12-07T06:42:40;4535;4535;
72485;PMS5003;60509;47.308;-122.428;2022-12-07T06:45:06;4535;4535;
72485;PMS5003;60509;47.308;-122.428;2022-12-07T06:47:31;4528;4528;
72485;PMS5003;60509;47.308;-122.428;2022-12-07T06:49:57;4535;4535;
72485;PMS5003;60509;47.308;-122.428;2022-12-07T06:52:22;4542;4542;
72485;PMS5003;60509;47.308;-122.428;2022-12-07T06:54:48;4528;4528;
72485;PMS5003;60509;47.308;-122.428;2022-12-07T06:57:14;4542;4542;
72485;PMS5003;60509;47.308;-122.428;2022-12-07T06:59:39;4522;4522;
72485;PMS5003;60509;47.308;-122.428;2022-12-07T07:02:05;4548;4548;
72485;PMS5003;60509;47.308;-122.428;2022-12-07T07:04:30;4542;4542;
72485;PMS5003;60509;47.308;-122.428;2022-12-07T07:06:56;4522;4522;
72485;PMS5003;60509;47.308;-122.428;2022-12-07T07:09:21;4522;4522;
72485;PMS5003;60509;47.308;-122.428;2022-12-07T07:11:47;4528;4528;
72485;PMS5003;60509;47.308;-122.428;2022-12-07T07:14:13;4528;4528;
72485;PMS5003;60509;47.308;-122.428;2022-12-07T07:16:38;4502;4502;
72485;PMS5003;60509;47.308;-122.428;2022-12-07T07:19:03;4496;4496;
72485;PMS5003;60509;47.308;-122.428;2022-12-07T07:21:29;4509;4509;
72485;PMS5003;60509;47.308;-122.428;2022-12-07T07:23:55;4528;4528;
72485;PMS5003;60509;47.308;-122.428;2022-12-07T07:26:20;4555;4555;
72485;PMS5003;60509;47.308;-122.428;2022-12-07T07:28:46;4528;4528;
72485;PMS5003;60509;47.308;-122.428;2022-12-07T07:31:11;4528;4528;
72485;PMS5003;60509;47.308;-122.428;2022-12-07T07:33:37;4502;4502;
72485;PMS5003;60509;47.308;-122.428;2022-12-07T07:36:03;4535;4535;
72485;PMS5003;60509;47.308;-122.428;2022-12-07T07:38:28;4535;4535;
72485;PMS5003;60509;47.308;-122.428;2022-12-07T07:40:53;4535;4535;
72485;PMS5003;60509;47.308;-122.428;2022-12-07T07:43:19;4535;4535;
72485;PMS5003;60509;47.308;-122.428;2022-12-07T07:45:45;4522;4522;
72485;PMS5003;60509;47.308;-122.428;2022-12-07T07:48:10;4548;4548;
72485;PMS5003;60509;47.308;-122.428;2022-12-07T07:50:36;4548;4548;
72485;PMS5003;60509;47.308;-122.428;2022-12-07T07:53:01;4542;4542;
72485;PMS5003;60509;47.308;-122.428;2022-12-07T07:55:27;4535;4535;
72485;PMS5003;60509;47.308;-122.428;2022-12-07T07:57:53;4548;4548;
72485;PMS5003;60509;47.308;-122.428;2022-12-07T08:00:18;4535;4535;
72485;PMS5003;60509;47.308;-122.428;2022-12-07T08:02:44;4575;4575;
72485;PMS5003;60509;47.308;-122.428;2022-12-07T08:05:09;4568;4568;
72485;PMS5003;60509;47.308;-122.428;2022-12-07T08:07:35;4562;4562;
72485;PMS5003;60509;47.308;-122.428;2022-12-07T08:10:00;4548;4548;
72485;PMS5003;60509;47.308;-122.428;2022-12-07T08:12:26;4568;4568;
72485;PMS5003;60509;47.308;-122.428;2022-12-07T08:14:51;4562;4562;
72485;PMS5003;60509;47.308;-122.428;2022-12-07T08:17:17;4582;4582;
72485;PMS5003;60509;47.308;-122.428;2022-12-07T08:19:42;4575;4575;
72485;PMS5003;60509;47.308;-122.428;2022-12-07T08:22:08;4582;4582;
72485;PMS5003;60509;47.308;-122.428;2022-12-07T08:24:34;4582;4582;
72485;PMS5003;60509;47.308;-122.428;2022-12-07T08:27:00;4582;4582;
72485;PMS5003;60509;47.308;-122.428;2022-12-07T08:29:24;4575;4575;
72485;PMS5003;60509;47.308;-122.428;2022-12-07T08:31:51;4555;4555;
72485;PMS5003;60509;47.308;-122.428;2022-12-07T08:34:16;4548;4548;
72485;PMS5003;60509;47.308;-122.428;2022-12-07T08:36:41;4535;4535;
72485;PMS5003;60509;47.308;-122.428;2022-12-07T08:39:07;4548;4548;
72485;PMS5003;60509;47.308;-122.428;2022-12-07T08:41:32;4548;4548;
72485;PMS5003;60509;47.308;-122.428;2022-12-07T08:43:58;4542;4542;
72485;PMS5003;60509;47.308;-122.428;2022-12-07T08:46:24;4528;4528;
72485;PMS5003;60509;47.308;-122.428;2022-12-07T08:48:50;4522;4522;
72485;PMS5003;60509;47.308;-122.428;2022-12-07T08:51:15;4542;4542;
72485;PMS5003;60509;47.308;-122.428;2022-12-07T08:53:40;4555;4555;
72485;PMS5003;60509;47.308;-122.428;2022-12-07T08:56:06;4555;4555;
72485;PMS5003;60509;47.308;-122.428;2022-12-07T08:58:32;4535;4535;
72485;PMS5003;60509;47.308;-122.428;2022-12-07T09:00:57;4555;4555;
72485;PMS5003;60509;47.308;-122.428;2022-12-07T09:03:23;4555;4555;
72485;PMS5003;60509;47.308;-122.428;2022-12-07T09:05:48;4542;4542;
72485;PMS5003;60509;47.308;-122.428;2022-12-07T09:08:14;4542;4542;
72485;PMS5003;60509;47.308;-122.428;2022-12-07T09:10:39;4515;4515;
72485;PMS5003;60509;47.308;-122.428;2022-12-07T09:13:05;4555;4555;
72485;PMS5003;60509;47.308;-122.428;2022-12-07T09:15:31;4555;4555;
72485;PMS5003;60509;47.308;-122.428;2022-12-07T09:17:56;4548;4548;
72485;PMS5003;60509;47.308;-122.428;2022-12-07T09:20:22;4575;4575;
72485;PMS5003;60509;47.308;-122.428;2022-12-07T09:22:47;4575;4575;
72485;PMS5003;60509;47.308;-122.428;2022-12-07T09:25:13;4575;4575;
72485;PMS5003;60509;47.308;-122.428;2022-12-07T09:27:38;4562;4562;
72485;PMS5003;60509;47.308;-122.428;2022-12-07T09:30:05;4555;4555;
72485;PMS5003;60509;47.308;-122.428;2022-12-07T09:32:30;4542;4542;
72485;PMS5003;60509;47.308;-122.428;2022-12-07T09:34:55;4542;4542;
72485;PMS5003;60509;47.308;-122.428;2022-12-07T09:37:21;4555;4555;
72485;PMS5003;60509;47.308;-122.428;2022-12-07T09:39:46;4562;4562;
72485;PMS5003;60509;47.308;-122.428;2022-12-07T09:42:15;4548;4548;
72485;PMS5003;60509;47.308;-122.428;2022-12-07T09:44:39;4515;4515;
72485;PMS5003;60509;47.308;-122.428;2022-12-07T09:47:03;4515;4515;
72485;PMS5003;60509;47.308;-122.428;2022-12-07T09:49:29;4562;4562;
72485;PMS5003;60509;47.308;-122.428;2022-12-07T09:52:00;4542;4542;
72485;PMS5003;60509;47.308;-122.428;2022-12-07T09:54:20;4548;4548;
72485;PMS5003;60509;47.308;-122.428;2022-12-07T09:56:45;4542;4542;
72485;PMS5003;60509;47.308;-122.428;2022-12-07T09:59:13;4509;4509;
72485;PMS5003;60509;47.308;-122.428;2022-12-07T10:01:37;4535;4535;
72485;PMS5003;60509;47.308;-122.428;2022-12-07T10:04:09;4535;4535;
72485;PMS5003;60509;47.308;-122.428;2022-12-07T10:06:28;4528;4528;
72485;PMS5003;60509;47.308;-122.428;2022-12-07T10:08:53;4528;4528;
72485;PMS5003;60509;47.308;-122.428;2022-12-07T10:11:19;4502;4502;
72485;PMS5003;60509;47.308;-122.428;2022-12-07T10:13:45;4528;4528;
72485;PMS5003;60509;47.308;-122.428;2022-12-07T10:16:27;4528;4528;
72485;PMS5003;60509;47.308;-122.428;2022-12-07T10:18:37;4535;4535;
72485;PMS5003;60509;47.308;-122.428;2022-12-07T10:21:04;4562;4562;
72485;PMS5003;60509;47.308;-122.428;2022-12-07T10:23:28;4548;4548;
72485;PMS5003;60509;47.308;-122.428;2022-12-07T10:25:52;4542;4542;
72485;PMS5003;60509;47.308;-122.428;2022-12-07T10:28:18;4528;4528;
72485;PMS5003;60509;47.308;-122.428;2022-12-07T10:30:53;4535;4535;
72485;PMS5003;60509;47.308;-122.428;2022-12-07T10:33:15;4515;4515;
72485;PMS5003;60509;47.308;-122.428;2022-12-07T10:35:35;4542;4542;
72485;PMS5003;60509;47.308;-122.428;2022-12-07T10:38:00;4535;4535;
72485;PMS5003;60509;47.308;-122.428;2022-12-07T10:40:28;4522;4522;
72485;PMS5003;60509;47.308;-122.428;2022-12-07T10:43:00;4528;4528;
72485;PMS5003;60509;47.308;-122.428;2022-12-07T10:45:17;4502;4502;
72485;PMS5003;60509;47.308;-122.428;2022-12-07T10:47:43;4496;4496;
72485;PMS5003;60509;47.308;-122.428;2022-12-07T10:50:44;4528;4528;
72485;PMS5003;60509;47.308;-122.428;2022-12-07T10:52:38;4522;4522;
72485;PMS5003;60509;47.308;-122.428;2022-12-07T10:55:06;4542;4542;
72485;PMS5003;60509;47.308;-122.428;2022-12-07T10:57:30;4528;4528;
72485;PMS5003;60509;47.308;-122.428;2022-12-07T11:00:09;4542;4542;
72485;PMS5003;60509;47.308;-122.428;2022-12-07T11:02:22;4548;4548;
72485;PMS5003;60509;47.308;-122.428;2022-12-07T11:04:43;4496;4496;
72485;PMS5003;60509;47.308;-122.428;2022-12-07T11:07:10;4522;4522;
72485;PMS5003;60509;47.308;-122.428;2022-12-07T11:09:38;4535;4535;
72485;PMS5003;60509;47.308;-122.428;2022-12-07T11:11:59;4528;4528;
72485;PMS5003;60509;47.308;-122.428;2022-12-07T11:14:25;4528;4528;
72485;PMS5003;60509;47.308;-122.428;2022-12-07T11:16:52;4542;4542;
72485;PMS5003;60509;47.308;-122.428;2022-12-07T11:19:19;4542;4542;
72485;PMS5003;60509;47.308;-122.428;2022-12-07T11:21:43;4535;4535;
72485;PMS5003;60509;47.308;-122.428;2022-12-07T11:24:08;4562;4562;
72485;PMS5003;60509;47.308;-122.428;2022-12-07T11:26:38;4588;4588;
72485;PMS5003;60509;47.308;-122.428;2022-12-07T11:29:02;4568;4568;
72485;PMS5003;60509;47.308;-122.428;2022-12-07T11:31:24;4555;4555;
72485;PMS5003;60509;47.308;-122.428;2022-12-07T11:33:50;4548;4548;
72485;PMS5003;60509;47.308;-122.428;2022-12-07T11:36:21;4568;4568;
72485;PMS5003;60509;47.308;-122.428;2022-12-07T11:38:42;4568;4568;
72485;PMS5003;60509;47.308;-122.428;2022-12-07T11:41:06;4575;4575;
72485;PMS5003;60509;47.308;-122.428;2022-12-07T11:43:32;4548;4548;
72485;PMS5003;60509;47.308;-122.428;2022-12-07T11:45:58;4542;4542;
72485;PMS5003;60509;47.308;-122.428;2022-12-07T11:48:24;4535;4535;
72485;PMS5003;60509;47.308;-122.428;2022-12-07T11:50:50;4548;4548;
72485;PMS5003;60509;47.308;-122.428;2022-12-07T11:53:16;4535;4535;
72485;PMS5003;60509;47.308;-122.428;2022-12-07T11:55:42;4542;4542;
72485;PMS5003;60509;47.308;-122.428;2022-12-07T11:58:08;4542;4542;
72485;PMS5003;60509;47.308;-122.428;2022-12-07T12:00:31;4522;4522;
72485;PMS5003;60509;47.308;-122.428;2022-12-07T12:02:58;4542;4542;
72485;PMS5003;60509;47.308;-122.428;2022-12-07T12:05:22;4562;4562;
72485;PMS5003;60509;47.308;-122.428;2022-12-07T12:07:49;4548;4548;
72485;PMS5003;60509;47.308;-122.428;2022-12-07T12:10:15;4515;4515;
72485;PMS5003;60509;47.308;-122.428;2022-12-07T12:12:45;4483;4483;
72485;PMS5003;60509;47.308;-122.428;2022-12-07T12:15:09;4502;4502;
72485;PMS5003;60509;47.308;-122.428;2022-12-07T12:18:06;4509;4509;
72485;PMS5003;60509;47.308;-122.428;2022-12-07T12:19:58;4509;4509;
72485;PMS5003;60509;47.308;-122.428;2022-12-07T12:22:21;4509;4509;
72485;PMS5003;60509;47.308;-122.428;2022-12-07T12:24:47;4535;4535;
72485;PMS5003;60509;47.308;-122.428;2022-12-07T12:27:17;4528;4528;
72485;PMS5003;60509;47.308;-122.428;2022-12-07T12:29:38;4483;4483;
72485;PMS5003;60509;47.308;-122.428;2022-12-07T12:32:05;4528;4528;
72485;PMS5003;60509;47.308;-122.428;2022-12-07T12:34:30;4522;4522;
72485;PMS5003;60509;47.308;-122.428;2022-12-07T12:36:55;4522;4522;
72485;PMS5003;60509;47.308;-122.428;2022-12-07T12:39:20;4515;4515;
72485;PMS5003;60509;47.308;-122.428;2022-12-07T12:41:54;4509;4509;
72485;PMS5003;60509;47.308;-122.428;2022-12-07T12:44:37;4522;4522;
72485;PMS5003;60509;47.308;-122.428;2022-12-07T12:46:38;4509;4509;
72485;PMS5003;60509;47.308;-122.428;2022-12-07T12:49:14;4535;4535;
72485;PMS5003;60509;47.308;-122.428;2022-12-07T12:51:36;4548;4548;
72485;PMS5003;60509;47.308;-122.428;2022-12-07T12:53:55;4535;4535;
72485;PMS5003;60509;47.308;-122.428;2022-12-07T12:56:29;4568;4568;
72485;PMS5003;60509;47.308;-122.428;2022-12-07T12:58:46;4562;4562;
72485;PMS5003;60509;47.308;-122.428;2022-12-07T13:01:44;4562;4562;
72485;PMS5003;60509;47.308;-122.428;2022-12-07T13:03:36;4555;4555;
72485;PMS5003;60509;47.308;-122.428;2022-12-07T13:06:19;4528;4528;
72485;PMS5003;60509;47.308;-122.428;2022-12-07T13:08:28;4522;4522;
72485;PMS5003;60509;47.308;-122.428;2022-12-07T13:11:15;4535;4535;
72485;PMS5003;60509;47.308;-122.428;2022-12-07T13:13:35;4528;4528;
72485;PMS5003;60509;47.308;-122.428;2022-12-07T13:15:45;4535;4535;
72485;PMS5003;60509;47.308;-122.428;2022-12-07T13:18:24;4535;4535;
72485;PMS5003;60509;47.308;-122.428;2022-12-07T13:20:44;4528;4528;
72485;PMS5003;60509;47.308;-122.428;2022-12-07T13:23:02;4542;4542;
72485;PMS5003;60509;47.308;-122.428;2022-12-07T13:25:29;4535;4535;
72485;PMS5003;60509;47.308;-122.428;2022-12-07T13:27:55;4542;4542;
72485;PMS5003;60509;47.308;-122.428;2022-12-07T13:30:19;4522;4522;
72485;PMS5003;60509;47.308;-122.428;2022-12-07T13:32:45;4542;4542;
72485;PMS5003;60509;47.308;-122.428;2022-12-07T13:35:38;4528;4528;
72485;PMS5003;60509;47.308;-122.428;2022-12-07T13:37:35;4548;4548;
72485;PMS5003;60509;47.308;-122.428;2022-12-07T13:40:11;4535;4535;
72485;PMS5003;60509;47.308;-122.428;2022-12-07T13:42:27;4522;4522;
72485;PMS5003;60509;47.308;-122.428;2022-12-07T13:44:52;4555;4555;
72485;PMS5003;60509;47.308;-122.428;2022-12-07T13:47:19;4568;4568;
72485;PMS5003;60509;47.308;-122.428;2022-12-07T13:49:47;4548;4548;
72485;PMS5003;60509;47.308;-122.428;2022-12-07T13:52:13;4542;4542;
72485;PMS5003;60509;47.308;-122.428;2022-12-07T13:54:42;4542;4542;
72485;PMS5003;60509;47.308;-122.428;2022-12-07T13:57:00;4535;4535;
72485;PMS5003;60509;47.308;-122.428;2022-12-07T13:59:25;4522;4522;
72485;PMS5003;60509;47.308;-122.428;2022-12-07T14:01:52;4535;4535;
72485;PMS5003;60509;47.308;-122.428;2022-12-07T14:04:18;4502;4502;
72485;PMS5003;60509;47.308;-122.428;2022-12-07T14:06:47;4515;4515;
72485;PMS5003;60509;47.308;-122.428;2022-12-07T14:09:14;4522;4522;
72485;PMS5003;60509;47.308;-122.428;2022-12-07T14:11:34;4515;4515;
72485;PMS5003;60509;47.308;-122.428;2022-12-07T14:14:00;4515;4515;
72485;PMS5003;60509;47.308;-122.428;2022-12-07T14:16:26;4542;4542;
72485;PMS5003;60509;47.308;-122.428;2022-12-07T14:18:51;4535;4535;
72485;PMS5003;60509;47.308;-122.428;2022-12-07T14:21:17;4522;4522;
72485;PMS5003;60509;47.308;-122.428;2022-12-07T14:23:42;4496;4496;
72485;PMS5003;60509;47.308;-122.428;2022-12-07T14:26:08;4470;4470;